createdAt,value
2023-02-06T00:01:30.094Z,24.00
2023-02-06T00:03:58.219Z,26.45
2023-02-06T00:06:26.335Z,26.27
2023-02-06T00:08:54.443Z,29.70
2023-02-06T00:11:22.840Z,30.60
2023-02-06T00:13:51.180Z,29.42
2023-02-06T00:16:22.259Z,27.75
2023-02-06T00:18:51.611Z,26.30
2023-02-06T00:21:22.095Z,26.88
2023-02-06T00:23:50.729Z,23.95
2023-02-06T00:26:19.354Z,27.83
2023-02-06T00:28:47.985Z,30.02
2023-02-06T00:31:16.596Z,30.23
2023-02-06T00:33:46.276Z,31.17
2023-02-06T00:36:14.484Z,30.75
2023-02-06T00:38:42.563Z,30.25
2023-02-06T00:41:10.759Z,28.50
2023-02-06T00:43:38.901Z,26.98
2023-02-06T00:46:07.126Z,24.73
2023-02-06T00:48:35.175Z,26.15
2023-02-06T00:51:04.740Z,27.45
2023-02-06T00:53:32.910Z,28.35
2023-02-06T00:56:00.976Z,33.03
2023-02-06T00:58:29.260Z,30.02
2023-02-06T01:00:57.268Z,28.08
2023-02-06T01:03:25.368Z,26.48
2023-02-06T01:05:53.463Z,24.63
2023-02-06T01:08:22.853Z,23.73
2023-02-06T01:10:51.078Z,24.05
2023-02-06T01:13:19.300Z,25.73
2023-02-06T01:15:49.533Z,24.17
2023-02-06T01:18:18.848Z,25.50
2023-02-06T01:20:46.924Z,24.00
2023-02-06T01:23:14.950Z,25.88
2023-02-06T01:25:44.533Z,25.05
2023-02-06T01:28:12.772Z,24.17
2023-02-06T01:30:40.939Z,25.20
2023-02-06T01:33:09.361Z,23.50
2023-02-06T01:35:37.661Z,23.55
2023-02-06T01:38:05.793Z,24.65
2023-02-06T01:40:33.956Z,26.23
2023-02-06T01:43:03.462Z,24.63
2023-02-06T01:45:44.605Z,25.48
2023-02-06T01:48:18.303Z,23.15
2023-02-06T01:50:49.222Z,24.27
2023-02-06T01:53:19.495Z,24.52
2023-02-06T01:55:49.684Z,24.50
2023-02-06T01:58:23.442Z,25.92
2023-02-06T02:00:51.761Z,26.25
2023-02-06T02:03:20.062Z,25.70
2023-02-06T02:05:50.672Z,27.17
2023-02-06T02:08:23.846Z,25.77
2023-02-06T02:10:52.138Z,29.05
2023-02-06T02:13:21.626Z,26.25
2023-02-06T02:16:00.925Z,21.52
2023-02-06T02:18:54.126Z,16.98
2023-02-06T02:22:00.808Z,19.08
2023-02-06T02:24:49.024Z,19.13
2023-02-06T02:27:40.591Z,19.80
2023-02-06T02:30:40.441Z,20.77
2023-02-06T02:33:32.730Z,21.88
2023-02-06T02:36:08.515Z,21.95
2023-02-06T02:38:45.470Z,19.73
2023-02-06T02:41:20.193Z,19.52
2023-02-06T02:46:25.968Z,21.92
2023-02-06T02:48:58.169Z,22.33
2023-02-06T02:51:27.830Z,22.05
2023-02-06T02:53:57.992Z,23.98
2023-02-06T02:56:27.619Z,23.48
2023-02-06T02:58:59.613Z,25.95
2023-02-06T03:01:32.126Z,24.40
2023-02-06T03:04:05.822Z,25.17
2023-02-06T03:06:49.260Z,26.58
2023-02-06T03:09:28.806Z,26.48
2023-02-06T03:12:04.885Z,24.63
2023-02-06T03:14:35.577Z,24.83
2023-02-06T03:17:10.751Z,26.83
2023-02-06T03:19:44.784Z,25.48
2023-02-06T03:22:16.326Z,27.23
2023-02-06T03:24:44.547Z,27.48
2023-02-06T03:27:16.240Z,27.30
2023-02-06T03:29:46.061Z,26.90
2023-02-06T03:32:18.113Z,29.48
2023-02-06T03:34:52.234Z,31.58
2023-02-06T03:37:23.848Z,28.88
2023-02-06T03:39:51.994Z,30.58
2023-02-06T03:42:22.769Z,29.85
2023-02-06T03:44:57.779Z,29.30
2023-02-06T03:47:27.614Z,29.15
2023-02-06T03:50:00.065Z,28.85
2023-02-06T03:52:37.046Z,30.35
2023-02-06T03:55:08.845Z,30.80
2023-02-06T03:57:38.105Z,31.17
2023-02-06T04:00:07.602Z,30.52
2023-02-06T04:02:36.605Z,32.20
2023-02-06T04:05:04.998Z,30.83
2023-02-06T04:07:37.180Z,27.85
2023-02-06T04:10:05.724Z,30.00
2023-02-06T04:12:33.947Z,26.35
2023-02-06T04:15:02.103Z,27.40
2023-02-06T04:17:43.526Z,27.13
2023-02-06T04:20:18.217Z,25.23
2023-02-06T04:22:48.092Z,22.15
2023-02-06T04:25:16.510Z,21.60
2023-02-06T04:27:44.634Z,21.85
2023-02-06T04:30:14.059Z,21.15
2023-02-06T04:32:42.069Z,21.90
2023-02-06T04:35:10.286Z,20.58
2023-02-06T04:37:38.767Z,20.77
2023-02-06T04:40:08.890Z,20.30
2023-02-06T04:42:37.000Z,19.67
2023-02-06T04:45:05.386Z,20.48
2023-02-06T04:47:33.475Z,20.95
2023-02-06T04:50:01.641Z,18.85
2023-02-06T04:52:29.808Z,20.40
2023-02-06T04:54:57.879Z,18.90
2023-02-06T04:57:28.024Z,21.98
2023-02-06T04:59:56.293Z,19.55
2023-02-06T05:02:24.473Z,20.50
2023-02-06T05:04:52.548Z,18.23
2023-02-06T05:07:20.776Z,19.35
2023-02-06T05:09:48.758Z,22.45
2023-02-06T05:12:16.752Z,22.17
2023-02-06T05:14:46.296Z,23.15
2023-02-06T05:17:14.435Z,24.73
2023-02-06T05:19:42.449Z,23.60
2023-02-06T05:22:10.577Z,27.15
2023-02-06T05:24:38.776Z,23.83
2023-02-06T05:27:06.809Z,27.42
2023-02-06T05:29:34.883Z,27.27
2023-02-06T05:32:04.483Z,29.38
2023-02-06T05:34:32.608Z,26.23
2023-02-06T05:37:00.794Z,26.88
2023-02-06T05:39:29.130Z,27.50
2023-02-06T05:41:57.201Z,24.15
2023-02-06T05:44:25.323Z,27.83
2023-02-06T05:46:54.623Z,26.90
2023-02-06T05:49:24.275Z,26.58
2023-02-06T05:51:52.320Z,25.70
2023-02-06T05:54:20.357Z,27.35
2023-02-06T05:56:48.518Z,27.15
2023-02-06T05:59:16.714Z,27.13
2023-02-06T06:01:44.820Z,24.60
2023-02-06T06:04:13.036Z,22.38
2023-02-06T06:06:42.929Z,19.30
2023-02-06T06:09:10.983Z,19.42
2023-02-06T06:11:39.212Z,19.83
2023-02-06T06:14:07.443Z,20.52
2023-02-06T06:16:36.041Z,20.00
2023-02-06T06:19:04.513Z,19.85
2023-02-06T06:21:33.972Z,18.55
2023-02-06T06:24:03.616Z,21.45
2023-02-06T06:26:32.048Z,17.50
2023-02-06T06:29:00.319Z,16.52
2023-02-06T06:31:28.417Z,17.08
2023-02-06T06:33:56.492Z,17.35
2023-02-06T06:36:24.624Z,16.23
2023-02-06T06:38:52.681Z,16.63
2023-02-06T06:41:22.215Z,17.27
2023-02-06T06:43:51.604Z,17.10
2023-02-06T06:46:19.895Z,16.50
2023-02-06T06:48:47.964Z,18.40
2023-02-06T06:51:16.168Z,18.38
2023-02-06T06:53:44.513Z,16.60
2023-02-06T06:56:15.364Z,15.40
2023-02-06T06:58:44.913Z,16.60
2023-02-06T07:01:12.997Z,16.60
2023-02-06T07:03:44.267Z,14.73
2023-02-06T07:06:12.848Z,15.73
2023-02-06T07:08:42.163Z,16.30
2023-02-06T07:11:10.742Z,15.93
2023-02-06T07:13:39.274Z,16.52
2023-02-06T07:16:09.693Z,20.15
2023-02-06T07:18:40.002Z,17.98
2023-02-06T07:21:09.048Z,17.75
2023-02-06T07:23:38.302Z,17.20
2023-02-06T07:26:06.798Z,22.02
2023-02-06T07:28:35.585Z,19.20
2023-02-06T07:31:03.971Z,19.23
2023-02-06T07:33:35.006Z,19.67
2023-02-06T07:36:04.157Z,19.73
2023-02-06T07:38:32.643Z,19.80
2023-02-06T07:41:03.580Z,17.63
2023-02-06T07:43:31.908Z,18.85
2023-02-06T07:46:02.607Z,21.88
2023-02-06T07:48:31.490Z,19.13
2023-02-06T07:51:05.943Z,18.80
2023-02-06T07:53:34.093Z,19.77
2023-02-06T07:56:02.235Z,20.00
2023-02-06T07:58:30.477Z,20.52
2023-02-06T08:01:00.782Z,20.00
2023-02-06T08:03:28.828Z,20.17
2023-02-06T08:05:56.874Z,17.23
2023-02-06T08:08:26.913Z,19.42
2023-02-06T08:10:55.023Z,31.45
2023-02-06T08:13:23.147Z,19.20
2023-02-06T08:15:51.264Z,21.27
2023-02-06T08:18:19.370Z,20.27
2023-02-06T08:20:47.461Z,20.33
2023-02-06T08:23:15.508Z,18.52
2023-02-06T08:25:44.947Z,17.40
2023-02-06T08:28:14.993Z,19.75
2023-02-06T08:30:46.258Z,17.05
2023-02-06T08:33:14.356Z,16.30
2023-02-06T08:35:42.526Z,15.52
2023-02-06T08:38:10.625Z,16.05
2023-02-06T08:40:38.663Z,17.30
2023-02-06T08:43:08.156Z,16.23
2023-02-06T08:45:36.505Z,16.48
2023-02-06T08:48:05.031Z,19.25
2023-02-06T08:50:33.363Z,18.95
2023-02-06T08:53:03.184Z,15.32
2023-02-06T08:55:31.453Z,18.42
2023-02-06T08:57:59.523Z,19.42
2023-02-06T09:00:29.261Z,18.20
2023-02-06T09:02:57.476Z,15.85
2023-02-06T09:05:25.621Z,18.65
2023-02-06T09:07:53.722Z,18.48
2023-02-06T09:10:27.499Z,17.67
2023-02-06T09:12:56.289Z,15.35
2023-02-06T09:15:24.427Z,15.95
2023-02-06T09:17:53.889Z,16.63
2023-02-06T09:20:22.664Z,16.90
2023-02-06T09:22:50.704Z,14.45
2023-02-06T09:25:18.808Z,15.32
2023-02-06T09:27:47.329Z,14.63
2023-02-06T09:30:16.292Z,16.48
2023-02-06T09:32:44.520Z,16.55
2023-02-06T09:35:14.104Z,15.30
2023-02-06T09:37:42.217Z,14.35
2023-02-06T09:40:13.857Z,14.43
2023-02-06T09:42:43.405Z,15.73
2023-02-06T09:45:16.887Z,16.52
2023-02-06T09:47:48.961Z,15.65
2023-02-06T09:50:27.229Z,15.80
2023-02-06T09:53:07.714Z,14.57
2023-02-06T09:55:40.985Z,16.13
2023-02-06T09:58:22.391Z,13.95
2023-02-06T10:00:54.814Z,14.52
2023-02-06T10:03:51.175Z,14.00
2023-02-06T10:06:23.601Z,13.00
2023-02-06T10:08:59.502Z,14.20
2023-02-06T10:11:40.204Z,13.88
2023-02-06T10:14:19.205Z,14.40
2023-02-06T10:16:51.157Z,13.25
2023-02-06T10:19:25.052Z,15.10
2023-02-06T10:22:00.609Z,15.50
2023-02-06T10:24:35.998Z,14.43
2023-02-06T10:27:11.115Z,15.10
2023-02-06T10:29:40.867Z,15.15
2023-02-06T10:32:38.204Z,15.48
2023-02-06T10:35:29.578Z,15.57
2023-02-06T10:38:27.277Z,15.65
2023-02-06T10:41:02.327Z,14.25
2023-02-06T10:43:40.589Z,14.77
2023-02-06T10:46:41.323Z,17.42
2023-02-06T10:49:18.323Z,17.42
2023-02-06T10:51:51.885Z,17.80
2023-02-06T10:54:25.691Z,14.45
2023-02-06T10:56:56.948Z,14.13
2023-02-06T10:59:30.171Z,13.65
2023-02-06T11:02:15.525Z,12.05
2023-02-06T11:07:18.413Z,11.73
2023-02-06T11:09:47.897Z,12.13
2023-02-06T11:12:29.209Z,10.23
2023-02-06T11:15:00.444Z,11.57
2023-02-06T11:17:29.418Z,13.10
2023-02-06T11:20:05.342Z,11.93
2023-02-06T11:22:44.274Z,12.38
2023-02-06T11:25:26.088Z,13.32
2023-02-06T11:27:54.824Z,12.75
2023-02-06T11:30:30.481Z,13.27
2023-02-06T11:33:04.707Z,15.30
2023-02-06T11:35:38.526Z,13.38
2023-02-06T11:38:15.429Z,13.55
2023-02-06T11:40:54.803Z,12.77
2023-02-06T11:43:24.869Z,14.13
2023-02-06T11:46:07.469Z,15.13
2023-02-06T11:48:41.265Z,12.48
2023-02-06T11:51:10.209Z,14.13
2023-02-06T11:53:39.455Z,12.63
2023-02-06T11:56:18.228Z,13.25
2023-02-06T11:58:46.904Z,13.77
2023-02-06T12:01:21.088Z,18.35
2023-02-06T12:03:57.870Z,14.57
2023-02-06T12:06:31.761Z,17.75
2023-02-06T12:09:01.418Z,16.00
2023-02-06T12:11:36.127Z,15.80
2023-02-06T12:14:10.548Z,15.57
2023-02-06T12:16:42.070Z,47.20
2023-02-06T12:19:16.914Z,23.38
2023-02-06T12:21:49.982Z,86.18
2023-02-06T12:24:28.808Z,48.60
2023-02-06T12:27:00.721Z,35.50
2023-02-06T12:29:36.063Z,17.98
2023-02-06T12:32:12.386Z,15.18
2023-02-06T12:34:53.773Z,14.20
2023-02-06T12:37:31.979Z,14.98
2023-02-06T12:40:01.164Z,21.20
2023-02-06T12:42:45.094Z,15.13
2023-02-06T12:45:25.173Z,17.58
2023-02-06T12:47:58.620Z,15.27
2023-02-06T12:50:30.819Z,28.73
2023-02-06T12:53:03.770Z,17.38
2023-02-06T12:55:36.224Z,17.25
2023-02-06T12:58:06.671Z,24.52
2023-02-06T13:00:46.871Z,24.70
2023-02-06T13:03:29.767Z,16.08
2023-02-06T13:06:04.098Z,17.17
2023-02-06T13:08:42.398Z,22.48
2023-02-06T13:11:19.014Z,31.15
2023-02-06T13:13:50.736Z,22.35
2023-02-06T13:16:19.025Z,16.50
2023-02-06T13:19:02.762Z,32.88
2023-02-06T13:21:33.654Z,22.27
2023-02-06T13:24:16.813Z,19.63
2023-02-06T13:27:15.262Z,22.35
2023-02-06T13:29:46.887Z,19.55
2023-02-06T13:32:45.383Z,18.77
2023-02-06T13:35:31.748Z,20.50
2023-02-06T13:38:30.302Z,22.23
2023-02-06T13:41:29.319Z,20.48
2023-02-06T13:44:00.570Z,16.20
2023-02-06T13:46:49.078Z,18.67
2023-02-06T13:49:37.770Z,16.38
2023-02-06T13:52:14.006Z,17.90
2023-02-06T13:55:03.310Z,16.30
2023-02-06T13:57:46.517Z,14.75
2023-02-06T14:00:18.641Z,15.65
2023-02-06T14:02:50.863Z,14.50
2023-02-06T14:05:23.113Z,14.75
2023-02-06T14:08:16.866Z,15.82
2023-02-06T14:11:13.873Z,17.33
2023-02-06T14:13:58.202Z,14.77
2023-02-06T14:16:40.550Z,18.70
2023-02-06T14:19:20.816Z,21.27
2023-02-06T14:21:56.715Z,24.95
2023-02-06T14:24:55.075Z,21.65
2023-02-06T14:27:35.515Z,19.73
2023-02-06T14:30:13.636Z,20.65
2023-02-06T14:32:52.956Z,17.90
2023-02-06T14:35:35.410Z,16.33
2023-02-06T14:38:26.230Z,21.02
2023-02-06T14:40:57.718Z,19.42
2023-02-06T14:43:30.246Z,14.05
2023-02-06T14:46:07.399Z,14.30
2023-02-06T14:48:45.496Z,12.98
2023-02-06T14:51:25.422Z,14.25
2023-02-06T14:53:57.067Z,13.93
2023-02-06T14:56:31.578Z,15.52
2023-02-06T14:59:15.468Z,15.38
2023-02-06T15:01:45.086Z,17.10
2023-02-06T15:04:14.908Z,15.65
2023-02-06T15:06:51.000Z,17.25
2023-02-06T15:09:27.653Z,16.77
2023-02-06T15:11:58.505Z,15.07
2023-02-06T15:14:29.341Z,14.90
2023-02-06T15:17:01.087Z,22.25
2023-02-06T15:19:31.097Z,25.25
2023-02-06T15:22:02.826Z,19.25
2023-02-06T15:24:48.921Z,20.30
2023-02-06T15:27:27.375Z,19.48
2023-02-06T15:29:56.161Z,19.35
2023-02-06T15:32:29.473Z,17.58
2023-02-06T15:34:59.095Z,20.98
2023-02-06T15:37:31.132Z,19.45
2023-02-06T15:40:07.988Z,19.20
2023-02-06T15:42:37.092Z,16.90
2023-02-06T15:45:06.443Z,18.00
2023-02-06T15:47:35.446Z,18.27
2023-02-06T15:50:11.024Z,17.35
2023-02-06T15:52:43.091Z,19.48
2023-02-06T15:55:24.805Z,19.00
2023-02-06T15:57:53.868Z,36.05
2023-02-06T16:00:25.587Z,25.25
2023-02-06T16:02:57.923Z,29.45
2023-02-06T16:05:31.548Z,29.70
2023-02-06T16:08:02.788Z,30.45
2023-02-06T16:10:34.557Z,30.63
2023-02-06T16:13:09.320Z,27.67
2023-02-06T16:15:39.337Z,27.60
2023-02-06T16:18:26.779Z,25.58
2023-02-06T16:21:13.193Z,24.08
2023-02-06T16:23:51.977Z,23.70
2023-02-06T16:26:23.011Z,29.67
2023-02-06T16:28:57.689Z,34.03
2023-02-06T16:31:27.120Z,41.28
2023-02-06T16:34:03.189Z,51.97
2023-02-06T16:36:33.642Z,39.50
2023-02-06T16:39:04.705Z,34.33
2023-02-06T16:41:34.732Z,31.83
2023-02-06T16:44:03.818Z,31.13
2023-02-06T16:46:32.355Z,22.30
2023-02-06T16:49:01.278Z,21.63
2023-02-06T16:51:32.109Z,22.40
2023-02-06T16:54:00.233Z,20.67
2023-02-06T16:56:29.915Z,25.17
2023-02-06T16:58:58.086Z,28.42
2023-02-06T17:01:29.688Z,28.42
2023-02-06T17:03:58.327Z,29.38
2023-02-06T17:06:30.146Z,31.20
2023-02-06T17:09:03.422Z,24.27
2023-02-06T17:11:33.690Z,28.65
2023-02-06T17:14:02.197Z,28.25
2023-02-06T17:16:35.001Z,28.55
2023-02-06T17:19:03.091Z,29.13
2023-02-06T17:21:33.666Z,30.92
2023-02-06T17:24:01.787Z,40.67
2023-02-06T17:26:30.387Z,38.90
2023-02-06T17:29:04.669Z,32.25
2023-02-06T17:31:33.383Z,24.50
2023-02-06T17:34:01.566Z,24.60
2023-02-06T17:36:32.474Z,26.63
2023-02-06T17:39:01.372Z,28.52
2023-02-06T17:41:31.381Z,27.60
2023-02-06T17:44:02.383Z,31.17
2023-02-06T17:46:30.669Z,22.60
2023-02-06T17:48:59.062Z,19.70
2023-02-06T17:51:27.190Z,19.88
2023-02-06T17:54:13.961Z,23.23
2023-02-06T17:56:42.190Z,20.88
2023-02-06T17:59:11.643Z,23.98
2023-02-06T18:01:39.994Z,26.52
2023-02-06T18:04:08.537Z,21.48
2023-02-06T18:06:37.187Z,27.45
2023-02-06T18:09:06.270Z,30.92
2023-02-06T18:11:35.816Z,34.65
2023-02-06T18:14:04.176Z,33.65
2023-02-06T18:16:33.948Z,49.05
2023-02-06T18:19:02.213Z,51.33
2023-02-06T18:21:31.202Z,48.97
2023-02-06T18:23:59.727Z,44.13
2023-02-06T18:26:27.853Z,39.45
2023-02-06T18:28:55.982Z,32.97
2023-02-06T18:31:26.977Z,35.00
2023-02-06T18:33:57.159Z,33.03
2023-02-06T18:36:25.466Z,30.48
2023-02-06T18:38:54.336Z,33.13
2023-02-06T18:41:40.243Z,28.48
2023-02-06T18:44:09.820Z,30.63
2023-02-06T18:46:38.952Z,29.90
2023-02-06T18:49:08.483Z,40.20
2023-02-06T18:51:36.751Z,30.80
2023-02-06T18:54:05.400Z,31.30
2023-02-06T18:56:33.891Z,43.15
2023-02-06T18:59:02.078Z,36.92
2023-02-06T19:01:30.202Z,39.47
2023-02-06T19:03:59.700Z,35.13
2023-02-06T19:06:35.354Z,38.72
2023-02-06T19:09:07.168Z,45.65
2023-02-06T19:11:35.915Z,39.25
2023-02-06T19:14:04.690Z,37.83
2023-02-06T19:16:32.965Z,41.05
2023-02-06T19:19:01.676Z,47.08
2023-02-06T19:21:31.227Z,61.35
2023-02-06T19:24:00.819Z,62.67
2023-02-06T19:26:30.062Z,153.50
2023-02-06T19:28:59.519Z,66.20
2023-02-06T19:31:27.741Z,63.75
2023-02-06T19:33:57.841Z,60.88
2023-02-06T19:36:27.480Z,131.88
2023-02-06T19:38:58.558Z,53.42
2023-02-06T19:41:29.336Z,52.20
2023-02-06T19:43:59.348Z,66.03
2023-02-06T19:46:28.560Z,52.03
2023-02-06T19:48:58.639Z,48.42
2023-02-06T19:51:29.499Z,49.53
2023-02-06T19:54:00.251Z,48.20
2023-02-06T19:56:32.758Z,48.65
2023-02-06T19:59:03.265Z,57.67
2023-02-06T20:01:32.395Z,54.53
2023-02-06T20:04:02.161Z,46.65
2023-02-06T20:06:35.118Z,49.70
2023-02-06T20:09:06.031Z,49.42
2023-02-06T20:11:34.729Z,50.95
2023-02-06T20:14:02.853Z,51.28
2023-02-06T20:16:32.953Z,56.95
2023-02-06T20:19:07.358Z,56.22
2023-02-06T20:21:39.247Z,55.05
2023-02-06T20:24:12.202Z,54.70
2023-02-06T20:26:42.169Z,59.78
2023-02-06T20:29:17.111Z,54.08
2023-02-06T20:31:45.327Z,61.65
2023-02-06T20:34:14.364Z,35.78
2023-02-06T20:36:42.939Z,30.25
2023-02-06T20:39:14.131Z,22.83
2023-02-06T20:41:43.383Z,17.73
2023-02-06T20:44:13.394Z,17.67
2023-02-06T20:46:42.429Z,16.02
2023-02-06T20:49:15.808Z,15.02
2023-02-06T20:51:44.193Z,16.00
2023-02-06T20:54:13.740Z,19.35
2023-02-06T20:56:42.324Z,20.83
2023-02-06T20:59:13.865Z,21.63
2023-02-06T21:01:42.521Z,22.77
2023-02-06T21:04:12.651Z,23.38
2023-02-06T21:06:41.650Z,23.55
2023-02-06T21:09:11.035Z,24.58
2023-02-06T21:11:42.655Z,28.05
2023-02-06T21:14:11.311Z,30.52
2023-02-06T21:16:39.747Z,33.20
2023-02-06T21:19:10.873Z,37.28
2023-02-06T21:21:39.659Z,44.92
2023-02-06T21:24:08.880Z,48.53
2023-02-06T21:26:37.451Z,53.17
2023-02-06T21:29:07.806Z,57.38
2023-02-06T21:31:38.941Z,60.15
2023-02-06T21:34:09.765Z,68.35
2023-02-06T21:36:39.561Z,67.95
2023-02-06T21:39:08.155Z,58.95
2023-02-06T21:41:37.137Z,56.42
2023-02-06T21:44:06.929Z,52.75
2023-02-06T21:46:35.190Z,46.25
2023-02-06T21:49:03.355Z,45.28
2023-02-06T21:51:31.665Z,41.90
2023-02-06T21:53:59.937Z,38.33
2023-02-06T21:56:30.904Z,36.05
2023-02-06T21:58:59.327Z,33.58
2023-02-06T22:01:32.757Z,35.85
2023-02-06T22:04:01.860Z,36.10
2023-02-06T22:06:30.511Z,33.08
2023-02-06T22:09:07.695Z,35.83
2023-02-06T22:11:37.476Z,34.20
2023-02-06T22:14:08.024Z,37.65
2023-02-06T22:16:38.111Z,34.22
2023-02-06T22:19:07.127Z,35.35
2023-02-06T22:21:38.693Z,34.22
2023-02-06T22:24:08.439Z,35.45
2023-02-06T22:26:38.888Z,34.92
2023-02-06T22:29:08.267Z,37.15
2023-02-06T22:31:38.377Z,36.10
2023-02-06T22:34:06.548Z,34.20
2023-02-06T22:36:34.810Z,33.90
2023-02-06T22:39:06.592Z,35.53
2023-02-06T22:41:36.132Z,34.95
2023-02-06T22:44:04.318Z,35.92
2023-02-06T22:46:34.297Z,38.63
2023-02-06T22:49:04.030Z,37.67
2023-02-06T22:51:32.121Z,37.67
2023-02-06T22:54:00.662Z,36.65
2023-02-06T22:56:31.485Z,38.17
2023-02-06T22:59:01.974Z,40.00
2023-02-06T23:01:33.327Z,39.42
2023-02-06T23:04:04.022Z,38.70
2023-02-06T23:06:33.494Z,37.20
2023-02-06T23:09:03.001Z,38.33
2023-02-06T23:11:31.903Z,38.72
2023-02-06T23:14:02.606Z,39.80
2023-02-06T23:16:32.067Z,38.90
2023-02-06T23:19:01.988Z,38.28
2023-02-06T23:21:32.227Z,39.63
2023-02-06T23:24:00.886Z,38.22
2023-02-06T23:26:31.358Z,40.10
2023-02-06T23:29:00.532Z,38.40
2023-02-06T23:31:29.835Z,39.28
2023-02-06T23:33:58.437Z,39.88
2023-02-06T23:36:29.307Z,39.75
2023-02-06T23:38:58.907Z,39.65
2023-02-06T23:41:28.780Z,40.50
2023-02-06T23:43:58.981Z,39.08
2023-02-06T23:46:28.334Z,41.15
2023-02-06T23:48:57.002Z,41.42
2023-02-06T23:51:25.883Z,40.55
2023-02-06T23:53:54.547Z,40.83
2023-02-06T23:56:27.258Z,41.08
2023-02-06T23:58:56.617Z,43.35
